Kennebunkport, Maine
Current Conditions -  °F | °C
As of 10:35 AM on Saturday 25 Oct 2014 (Local Time) from KSFM Reporting Station
Clear Clear  
Wind Chill: 55°   Ceiling: Unl
Heat Index: 55°   Visibility: 10mi
Dew Point: 39°   Wind: 8mph
Humidity: 54%   Direction: 280°W
Pressure: 29.68"   Gusts: NA
Location:  43.36°N, 70.48°W
Report Text: KSFM 251435Z AUTO 28007KT 10SM CLR 13/04 A2968 RMK AO1
Loading
Personal Weather Stations






























Interactive Weather Map
Tropical Storm Tracking
New forecast layout! Learn more

10-Day Weather Forecast

Advertisements
Track Severe Weather on mobile